createdAt,value
2018-12-10T00:02:12.873Z,90.20
2018-12-10T00:04:42.042Z,85.33
2018-12-10T00:07:11.149Z,80.93
2018-12-10T00:09:40.410Z,82.17
2018-12-10T00:12:09.560Z,75.60
2018-12-10T00:14:38.753Z,78.57
2018-12-10T00:17:07.924Z,71.47
2018-12-10T00:19:37.067Z,76.27
2018-12-10T00:22:06.169Z,74.20
2018-12-10T00:24:35.280Z,81.00
2018-12-10T00:27:04.420Z,73.60
2018-12-10T00:29:33.585Z,65.93
2018-12-10T00:32:02.711Z,69.13
2018-12-10T00:34:31.833Z,82.47
2018-12-10T00:37:01.136Z,103.07
2018-12-10T00:39:30.406Z,93.63
2018-12-10T00:41:59.524Z,71.90
2018-12-10T00:44:28.653Z,76.10
2018-12-10T00:46:57.784Z,82.93
2018-12-10T00:49:27.018Z,85.43
2018-12-10T00:51:56.241Z,86.47
2018-12-10T00:54:25.409Z,86.47
2018-12-10T00:56:54.507Z,91.40
2018-12-10T00:59:23.651Z,85.80
2018-12-10T01:01:52.800Z,84.90
2018-12-10T01:04:21.958Z,72.47
2018-12-10T01:06:51.090Z,72.13
2018-12-10T01:09:20.242Z,68.37
2018-12-10T01:11:49.365Z,68.20
2018-12-10T01:14:18.545Z,64.60
2018-12-10T01:16:47.664Z,61.17
2018-12-10T01:19:16.781Z,63.10
2018-12-10T01:21:45.887Z,70.97
2018-12-10T01:24:15.004Z,86.57
2018-12-10T01:26:44.149Z,79.37
2018-12-10T01:29:13.259Z,71.67
2018-12-10T01:31:42.408Z,101.93
2018-12-10T01:34:11.556Z,97.60
2018-12-10T01:36:40.682Z,101.40
2018-12-10T01:39:09.820Z,105.63
2018-12-10T01:41:38.961Z,100.83
2018-12-10T01:44:08.134Z,106.27
2018-12-10T01:46:37.259Z,102.47
2018-12-10T01:49:06.397Z,100.57
2018-12-10T01:51:35.531Z,92.23
2018-12-10T01:54:04.671Z,80.17
2018-12-10T01:56:33.794Z,81.93
2018-12-10T01:59:02.919Z,76.77
2018-12-10T02:01:32.045Z,69.53
2018-12-10T02:04:01.153Z,73.40
2018-12-10T02:06:30.290Z,69.40
2018-12-10T02:08:59.433Z,73.93
2018-12-10T02:11:28.566Z,81.60
2018-12-10T02:13:57.712Z,100.07
2018-12-10T02:16:26.968Z,74.73
2018-12-10T02:18:56.138Z,79.40
2018-12-10T02:21:25.277Z,77.70
2018-12-10T02:23:54.401Z,76.77
2018-12-10T02:26:23.573Z,78.07
2018-12-10T02:29:23.342Z,89.13
2018-12-10T02:31:52.481Z,68.10
2018-12-10T02:34:21.598Z,83.77
2018-12-10T02:36:50.737Z,62.30
2018-12-10T02:39:19.839Z,57.27
2018-12-10T02:41:48.984Z,56.67
2018-12-10T02:44:18.188Z,57.43
2018-12-10T02:46:47.325Z,51.90
2018-12-10T02:49:16.493Z,49.03
2018-12-10T02:51:45.638Z,58.17
2018-12-10T02:54:14.790Z,54.20
2018-12-10T02:56:43.928Z,61.90
2018-12-10T02:59:13.058Z,62.87
2018-12-10T03:01:42.185Z,60.00
2018-12-10T03:04:11.311Z,58.20
2018-12-10T03:06:40.439Z,50.23
2018-12-10T03:09:09.642Z,51.83
2018-12-10T03:11:38.774Z,53.37
2018-12-10T03:14:07.888Z,57.00
2018-12-10T03:16:37.023Z,57.57
2018-12-10T03:19:37.180Z,53.40
2018-12-10T03:22:06.358Z,53.10
2018-12-10T03:24:35.492Z,56.70
2018-12-10T03:27:04.621Z,51.20
2018-12-10T03:29:33.745Z,55.07
2018-12-10T03:32:03.002Z,57.10
2018-12-10T03:34:32.227Z,57.03
2018-12-10T03:37:01.372Z,49.97
2018-12-10T03:42:05.926Z,51.30
2018-12-10T03:44:35.053Z,50.37
2018-12-10T03:47:04.756Z,51.23
2018-12-10T03:49:33.879Z,52.63
2018-12-10T03:52:03.054Z,57.77
2018-12-10T03:54:32.189Z,53.47
2018-12-10T03:57:01.309Z,59.60
2018-12-10T03:59:30.421Z,60.07
2018-12-10T04:01:59.573Z,59.87
2018-12-10T04:04:28.702Z,54.33
2018-12-10T04:06:57.838Z,60.33
2018-12-10T04:09:27.004Z,61.07
2018-12-10T04:11:56.199Z,61.50
2018-12-10T04:14:25.311Z,57.63
2018-12-10T04:16:54.516Z,56.53
2018-12-10T04:19:23.683Z,55.10
2018-12-10T04:21:52.848Z,52.93
2018-12-10T04:24:21.965Z,55.03
2018-12-10T04:26:51.117Z,54.63
2018-12-10T04:29:20.234Z,51.70
2018-12-10T04:31:49.403Z,50.53
2018-12-10T04:34:18.529Z,52.83
2018-12-10T04:36:47.688Z,51.27
2018-12-10T04:39:16.830Z,53.50
2018-12-10T04:41:45.985Z,48.33
2018-12-10T04:44:15.121Z,45.10
2018-12-10T04:46:44.280Z,50.20
2018-12-10T04:49:13.412Z,50.60
2018-12-10T04:51:42.517Z,53.90
2018-12-10T04:54:11.650Z,65.97
2018-12-10T05:00:13.066Z,63.17
2018-12-10T05:02:42.228Z,78.57
2018-12-10T05:05:11.389Z,100.57
2018-12-10T05:07:40.513Z,110.67
2018-12-10T05:10:09.613Z,122.00
2018-12-10T05:12:38.742Z,134.93
2018-12-10T05:15:07.876Z,123.00
2018-12-10T05:17:37.045Z,117.57
2018-12-10T05:20:06.337Z,123.50
2018-12-10T05:22:35.496Z,120.90
2018-12-10T05:25:04.634Z,126.67
2018-12-10T05:27:33.809Z,114.97
2018-12-10T05:30:02.962Z,109.97
2018-12-10T05:32:32.136Z,118.07
2018-12-10T05:35:01.277Z,126.20
2018-12-10T05:37:30.437Z,116.43
2018-12-10T05:39:59.589Z,88.50
2018-12-10T05:42:28.697Z,81.40
2018-12-10T05:44:57.826Z,74.00
2018-12-10T05:47:26.939Z,88.30
2018-12-10T05:49:55.589Z,93.20
2018-12-10T05:52:24.634Z,87.37
2018-12-10T05:54:53.672Z,69.30
2018-12-10T05:57:22.710Z,60.23
2018-12-10T05:59:51.738Z,54.77
2018-12-10T06:02:20.767Z,52.57
2018-12-10T06:04:49.817Z,51.20
2018-12-10T06:07:18.853Z,49.00
2018-12-10T06:09:47.865Z,49.27
2018-12-10T06:12:16.898Z,61.73
2018-12-10T06:14:45.912Z,62.90
2018-12-10T06:17:14.922Z,64.97
2018-12-10T06:19:43.944Z,66.50
2018-12-10T06:22:12.956Z,64.83
2018-12-10T06:24:41.985Z,65.97
2018-12-10T06:27:11.060Z,63.83
2018-12-10T06:29:40.072Z,58.60
2018-12-10T06:32:09.149Z,64.47
2018-12-10T06:34:38.169Z,84.20
2018-12-10T06:37:07.520Z,102.43
2018-12-10T06:39:36.537Z,146.17
2018-12-10T06:42:05.565Z,117.57
2018-12-10T06:44:34.841Z,94.40
2018-12-10T06:47:03.860Z,72.47
2018-12-10T06:49:32.869Z,60.67
2018-12-10T06:52:01.870Z,93.93
2018-12-10T06:54:30.889Z,79.03
2018-12-10T06:57:00.007Z,68.57
2018-12-10T06:59:29.065Z,57.10
2018-12-10T07:01:58.061Z,37.07
2018-12-10T07:04:27.083Z,28.97
2018-12-10T07:06:56.113Z,30.23
2018-12-10T07:09:25.133Z,51.37
2018-12-10T07:11:54.166Z,51.70
2018-12-10T07:14:23.364Z,42.30
2018-12-10T07:16:54.467Z,42.20
2018-12-10T07:19:23.500Z,43.37
2018-12-10T07:21:52.609Z,47.90
2018-12-10T07:24:21.591Z,48.80
2018-12-10T07:26:50.712Z,46.43
2018-12-10T07:29:19.738Z,44.97
2018-12-10T07:31:48.751Z,49.67
2018-12-10T07:34:17.745Z,52.97
2018-12-10T07:36:46.740Z,50.67
2018-12-10T07:39:15.741Z,53.93
2018-12-10T07:41:44.745Z,50.70
2018-12-10T07:44:13.935Z,51.60
2018-12-10T07:46:42.975Z,52.37
2018-12-10T07:49:11.988Z,53.57
2018-12-10T07:51:41.025Z,55.70
2018-12-10T07:54:10.070Z,60.73
2018-12-10T07:56:39.105Z,60.90
2018-12-10T07:59:08.108Z,72.77
2018-12-10T08:01:37.137Z,78.77
2018-12-10T08:04:06.200Z,99.03
2018-12-10T08:06:35.225Z,83.70
2018-12-10T08:09:05.269Z,76.00
2018-12-10T08:11:34.285Z,76.87
2018-12-10T08:14:03.652Z,76.97
2018-12-10T08:16:32.847Z,81.40
2018-12-10T08:19:01.865Z,80.47
2018-12-10T08:21:30.850Z,78.90
2018-12-10T08:23:59.849Z,73.93
2018-12-10T08:26:28.841Z,61.00
2018-12-10T08:29:03.879Z,64.80
2018-12-10T08:31:28.918Z,67.13
2018-12-10T08:33:57.941Z,75.10
2018-12-10T08:36:26.954Z,66.70
2018-12-10T08:38:56.014Z,58.57
2018-12-10T08:41:25.041Z,61.37
2018-12-10T08:43:54.169Z,67.50
2018-12-10T08:46:23.316Z,70.03
2018-12-10T08:48:52.432Z,71.90
2018-12-10T08:51:21.561Z,66.93
2018-12-10T08:53:50.666Z,70.20
2018-12-10T08:56:19.810Z,71.60
2018-12-10T08:58:48.942Z,49.83
2018-12-10T09:01:18.052Z,46.17
2018-12-10T09:03:47.194Z,48.43
2018-12-10T09:06:16.314Z,43.63
2018-12-10T09:08:45.529Z,42.83
2018-12-10T09:11:14.669Z,34.27
2018-12-10T09:13:43.769Z,36.70
2018-12-10T09:16:12.906Z,39.50
2018-12-10T09:18:42.023Z,30.67
2018-12-10T09:21:11.145Z,25.40
2018-12-10T09:23:40.281Z,23.50
2018-12-10T09:26:10.046Z,27.23
2018-12-10T09:28:40.270Z,27.27
2018-12-10T09:31:09.372Z,28.83
2018-12-10T09:33:38.490Z,29.67
2018-12-10T09:36:07.610Z,29.20
2018-12-10T09:38:36.728Z,30.60
2018-12-10T09:41:05.840Z,33.40
2018-12-10T09:43:34.950Z,31.37
2018-12-10T09:46:04.090Z,38.23
2018-12-10T09:48:33.223Z,37.90
2018-12-10T09:51:02.341Z,40.33
2018-12-10T09:53:31.457Z,37.50
2018-12-10T09:58:37.173Z,29.57
2018-12-10T10:01:06.300Z,27.80
2018-12-10T10:04:06.069Z,26.93
2018-12-10T10:06:35.141Z,21.80
2018-12-10T10:09:05.337Z,20.20
2018-12-10T10:11:34.456Z,19.83
2018-12-10T10:14:03.574Z,18.70
2018-12-10T10:16:32.703Z,18.33
2018-12-10T10:19:01.812Z,17.60
2018-12-10T10:21:30.898Z,17.57
2018-12-10T10:24:00.006Z,19.33
2018-12-10T10:26:29.097Z,18.53
2018-12-10T10:28:58.233Z,17.50
2018-12-10T10:31:27.317Z,17.40
2018-12-10T10:33:56.425Z,17.10
2018-12-10T10:36:25.525Z,16.47
2018-12-10T10:38:54.628Z,14.00
2018-12-10T10:41:31.127Z,13.90
2018-12-10T10:43:54.877Z,14.30
2018-12-10T10:46:23.987Z,13.30
2018-12-10T10:48:53.097Z,12.50
2018-12-10T10:51:22.217Z,12.03
2018-12-10T10:53:51.305Z,11.70
2018-12-10T10:56:20.430Z,10.67
2018-12-10T10:58:49.561Z,11.13
2018-12-10T11:01:26.713Z,10.80
2018-12-10T11:03:55.817Z,8.63
2018-12-10T11:06:24.952Z,8.07
2018-12-10T11:08:54.048Z,11.47
2018-12-10T11:11:23.139Z,9.27
2018-12-10T11:13:52.261Z,11.97
2018-12-10T11:16:21.380Z,9.97
2018-12-10T11:18:50.533Z,10.37
2018-12-10T11:21:19.617Z,10.87
2018-12-10T11:23:48.728Z,10.13
2018-12-10T11:26:17.837Z,23.33
2018-12-10T11:28:46.930Z,20.70
2018-12-10T11:31:17.275Z,28.60
2018-12-10T11:33:47.454Z,29.00
2018-12-10T11:36:16.832Z,23.63
2018-12-10T11:38:45.901Z,27.40
2018-12-10T11:41:15.020Z,26.93
2018-12-10T11:43:44.120Z,19.80
2018-12-10T11:46:13.253Z,18.10
2018-12-10T11:48:42.377Z,18.33
2018-12-10T11:51:11.583Z,16.13
2018-12-10T11:53:40.676Z,15.47
2018-12-10T11:56:09.781Z,15.63
2018-12-10T11:58:38.873Z,15.60
2018-12-10T12:01:07.986Z,31.80
2018-12-10T12:03:37.124Z,42.30
2018-12-10T12:06:06.262Z,47.57
2018-12-10T12:08:35.414Z,48.30
2018-12-10T12:11:04.518Z,51.30
2018-12-10T12:13:33.609Z,45.63
2018-12-10T12:16:02.724Z,37.53
2018-12-10T12:18:31.811Z,42.70
2018-12-10T12:21:00.880Z,30.93
2018-12-10T12:23:29.964Z,47.03
2018-12-10T12:25:59.123Z,30.80
2018-12-10T12:28:28.233Z,24.90
2018-12-10T12:30:57.327Z,28.73
2018-12-10T12:33:26.452Z,22.57
2018-12-10T12:35:55.573Z,25.30
2018-12-10T12:38:24.678Z,29.60
2018-12-10T12:40:53.785Z,33.13
2018-12-10T12:43:22.890Z,37.80
2018-12-10T12:45:52.008Z,36.40
2018-12-10T12:48:21.120Z,38.00
2018-12-10T12:50:50.324Z,34.10
2018-12-10T12:53:19.415Z,27.67
2018-12-10T12:55:48.541Z,31.07
2018-12-10T12:58:17.663Z,31.57
2018-12-10T13:00:46.771Z,29.50
2018-12-10T13:03:15.945Z,25.30
2018-12-10T13:05:45.135Z,37.63
2018-12-10T13:08:14.245Z,52.13
2018-12-10T13:10:43.379Z,50.63
2018-12-10T13:13:12.478Z,48.00
2018-12-10T13:15:41.624Z,53.30
2018-12-10T13:18:10.723Z,54.87
2018-12-10T13:20:39.830Z,54.20
2018-12-10T13:23:08.934Z,51.57
2018-12-10T13:25:38.054Z,48.47
2018-12-10T13:28:07.145Z,48.67
2018-12-10T13:30:36.268Z,46.30
2018-12-10T13:33:05.485Z,50.40
2018-12-10T13:38:06.757Z,48.80
2018-12-10T13:40:34.812Z,46.90
2018-12-10T13:43:03.933Z,44.10
2018-12-10T13:45:33.039Z,43.20
2018-12-10T13:48:02.147Z,41.83
2018-12-10T13:50:31.274Z,41.30
2018-12-10T13:53:00.400Z,39.80
2018-12-10T13:55:29.556Z,37.73
2018-12-10T13:57:58.657Z,39.47
2018-12-10T14:00:29.281Z,39.33
2018-12-10T14:03:02.585Z,41.23
2018-12-10T14:05:31.723Z,43.53
2018-12-10T14:08:00.834Z,39.90
2018-12-10T14:10:30.062Z,38.73
2018-12-10T14:12:59.151Z,41.30
2018-12-10T14:15:28.292Z,39.90
2018-12-10T14:17:57.425Z,36.93
2018-12-10T14:20:26.558Z,35.40
2018-12-10T14:22:55.645Z,36.93
2018-12-10T14:25:27.329Z,35.47
2018-12-10T14:27:56.455Z,34.63
2018-12-10T14:30:25.555Z,35.60
2018-12-10T14:32:54.694Z,34.77
2018-12-10T14:35:23.825Z,36.30
2018-12-10T14:37:52.936Z,38.40
2018-12-10T14:40:22.097Z,33.40
2018-12-10T14:42:53.978Z,45.80
2018-12-10T14:45:23.086Z,43.60
2018-12-10T14:47:53.829Z,41.30
2018-12-10T14:50:22.940Z,45.60
2018-12-10T14:52:52.433Z,42.57
2018-12-10T14:55:21.537Z,46.90
2018-12-10T14:57:50.672Z,44.67
2018-12-10T15:00:19.815Z,50.87
2018-12-10T15:02:48.951Z,48.67
2018-12-10T15:05:18.070Z,57.37
2018-12-10T15:07:47.209Z,67.10
2018-12-10T15:10:16.344Z,65.40
2018-12-10T15:12:45.453Z,65.80
2018-12-10T15:15:14.569Z,77.77
2018-12-10T15:17:43.694Z,94.53
2018-12-10T15:20:14.432Z,114.97
2018-12-10T15:22:43.608Z,163.93
2018-12-10T15:25:12.750Z,224.03
2018-12-10T15:27:41.874Z,214.35
2018-12-10T15:30:12.624Z,197.03
2018-12-10T15:32:41.727Z,178.67
2018-12-10T15:35:10.850Z,184.70
2018-12-10T15:37:39.967Z,214.67
2018-12-10T15:40:09.156Z,218.17
2018-12-10T15:42:38.373Z,186.63
2018-12-10T15:45:09.890Z,190.23
2018-12-10T15:47:39.021Z,195.27
2018-12-10T15:50:08.154Z,188.07
2018-12-10T15:52:37.254Z,180.20
2018-12-10T15:55:06.520Z,173.13
2018-12-10T15:57:35.663Z,163.00
2018-12-10T16:00:05.141Z,163.67
2018-12-10T16:02:34.277Z,157.97
2018-12-10T16:05:03.369Z,157.90
2018-12-10T16:07:32.511Z,148.20
2018-12-10T16:10:01.677Z,150.47
2018-12-10T16:12:31.924Z,141.67
2018-12-10T16:15:01.049Z,146.80
2018-12-10T16:17:30.193Z,141.50
2018-12-10T16:19:59.305Z,156.23
2018-12-10T16:22:28.432Z,147.53
2018-12-10T16:24:57.578Z,142.37
2018-12-10T16:27:26.819Z,166.40
2018-12-10T16:29:55.973Z,149.77
2018-12-10T16:32:25.102Z,194.53
2018-12-10T16:34:54.215Z,199.50
2018-12-10T16:37:23.320Z,226.33
2018-12-10T16:39:52.427Z,215.77
2018-12-10T16:42:21.541Z,215.90
2018-12-10T16:44:50.649Z,193.00
2018-12-10T16:47:19.845Z,170.30
2018-12-10T16:49:48.977Z,160.00
2018-12-10T16:52:19.088Z,157.40
2018-12-10T16:54:48.218Z,152.97
2018-12-10T16:57:17.378Z,151.27
2018-12-10T16:59:46.492Z,143.60
2018-12-10T17:02:15.609Z,143.80
2018-12-10T17:04:44.704Z,133.07
2018-12-10T17:07:13.863Z,129.67
2018-12-10T17:09:43.270Z,131.30
2018-12-10T17:12:12.509Z,127.83
2018-12-10T17:15:12.424Z,122.47
2018-12-10T17:17:41.723Z,103.33
2018-12-10T17:20:10.864Z,122.17
2018-12-10T17:22:39.995Z,122.73
2018-12-10T17:25:09.291Z,109.07
2018-12-10T17:27:38.393Z,106.40
2018-12-10T17:30:08.058Z,117.10
2018-12-10T17:32:37.172Z,99.03
2018-12-10T17:35:06.970Z,77.13
2018-12-10T17:37:36.122Z,65.47
2018-12-10T17:40:05.300Z,55.90
2018-12-10T17:42:34.429Z,50.73
2018-12-10T17:45:03.586Z,49.43
2018-12-10T17:47:32.713Z,43.77
2018-12-10T17:50:02.222Z,36.00
2018-12-10T17:52:31.340Z,29.43
2018-12-10T17:55:00.505Z,26.90
2018-12-10T17:57:29.675Z,24.43
2018-12-10T17:59:58.797Z,22.00
2018-12-10T18:02:27.930Z,17.23
2018-12-10T18:04:57.082Z,15.43
2018-12-10T18:07:26.207Z,16.23
2018-12-10T18:09:55.431Z,16.87
2018-12-10T18:12:24.560Z,19.10
2018-12-10T18:14:53.712Z,16.07
2018-12-10T18:17:22.868Z,13.00
2018-12-10T18:19:56.142Z,13.20
2018-12-10T18:22:25.844Z,14.80
2018-12-10T18:24:55.931Z,15.70
2018-12-10T18:27:26.563Z,13.97
2018-12-10T18:29:55.754Z,15.00
2018-12-10T18:32:25.382Z,15.73
2018-12-10T18:34:55.332Z,13.83
2018-12-10T18:37:28.802Z,13.00
2018-12-10T18:39:58.049Z,13.67
2018-12-10T18:42:27.569Z,12.10
2018-12-10T18:44:57.169Z,14.03
2018-12-10T18:47:26.320Z,16.00
2018-12-10T18:49:55.459Z,12.40
2018-12-10T18:52:24.609Z,11.40
2018-12-10T18:54:53.742Z,10.10
2018-12-10T18:57:22.892Z,12.00
2018-12-10T18:59:52.033Z,10.67
2018-12-10T19:02:21.184Z,10.70
2018-12-10T19:04:50.301Z,9.13
2018-12-10T19:07:19.385Z,8.47
2018-12-10T19:09:48.499Z,9.78
2018-12-10T19:12:17.663Z,9.63
2018-12-10T19:14:46.846Z,9.50
2018-12-10T19:17:16.010Z,10.67
2018-12-10T19:19:45.257Z,10.07
2018-12-10T19:22:14.347Z,11.50
2018-12-10T19:24:43.477Z,9.23
2018-12-10T19:27:12.566Z,11.37
2018-12-10T19:29:41.700Z,9.77
2018-12-10T19:32:10.853Z,8.93
2018-12-10T19:34:40.035Z,11.33
2018-12-10T19:37:09.120Z,10.23
2018-12-10T19:39:38.294Z,10.33
2018-12-10T19:42:07.415Z,9.60
2018-12-10T19:44:36.559Z,7.50
2018-12-10T19:47:07.574Z,8.40
2018-12-10T19:49:37.014Z,7.77
2018-12-10T19:52:06.123Z,7.43
2018-12-10T19:54:35.286Z,7.63
2018-12-10T19:57:04.762Z,8.47
2018-12-10T19:59:33.873Z,8.10
2018-12-10T20:02:03.000Z,7.20
2018-12-10T20:04:32.153Z,7.57
2018-12-10T20:07:06.179Z,11.87
2018-12-10T20:09:35.988Z,7.93
2018-12-10T20:12:05.152Z,9.30
2018-12-10T20:14:34.307Z,8.37
2018-12-10T20:17:03.469Z,7.97
2018-12-10T20:19:32.577Z,6.20
2018-12-10T20:22:01.770Z,6.63
2018-12-10T20:24:30.983Z,5.87
2018-12-10T20:27:00.174Z,6.50
2018-12-10T20:29:29.312Z,6.73
2018-12-10T20:31:58.425Z,7.47
2018-12-10T20:34:27.538Z,8.60
2018-12-10T20:36:56.645Z,6.30
2018-12-10T20:39:25.770Z,4.70
2018-12-10T20:41:54.878Z,5.80
2018-12-10T20:44:23.981Z,5.10
2018-12-10T20:46:53.070Z,5.27
2018-12-10T20:49:22.232Z,7.43
2018-12-10T20:51:51.336Z,7.50
2018-12-10T20:54:20.457Z,9.43
2018-12-10T20:56:49.577Z,5.63
2018-12-10T20:59:18.673Z,7.00
2018-12-10T21:01:47.788Z,5.90
2018-12-10T21:04:16.905Z,5.30
2018-12-10T21:06:46.038Z,6.60
2018-12-10T21:09:15.190Z,7.20
2018-12-10T21:11:44.290Z,4.80
2018-12-10T21:14:13.445Z,4.50
2018-12-10T21:16:42.550Z,5.50
2018-12-10T21:19:11.668Z,5.10
2018-12-10T21:21:40.744Z,4.17
2018-12-10T21:24:09.859Z,4.37
2018-12-10T21:26:38.938Z,4.43
2018-12-10T21:29:08.008Z,4.00
2018-12-10T21:31:37.120Z,4.53
2018-12-10T21:34:06.259Z,6.57
2018-12-10T21:36:35.368Z,4.60
2018-12-10T21:39:05.565Z,5.03
2018-12-10T21:41:34.653Z,5.63
2018-12-10T21:44:03.948Z,12.00
2018-12-10T21:46:33.193Z,5.23
2018-12-10T21:49:02.324Z,3.23
2018-12-10T21:51:31.447Z,4.00
2018-12-10T21:54:00.567Z,4.00
2018-12-10T21:56:29.696Z,4.83
2018-12-10T21:58:58.823Z,3.27
2018-12-10T22:01:27.912Z,3.20
2018-12-10T22:03:57.063Z,3.50
2018-12-10T22:06:26.173Z,3.60
2018-12-10T22:08:55.297Z,3.70
2018-12-10T22:11:24.418Z,3.30
2018-12-10T22:13:53.522Z,3.37
2018-12-10T22:16:22.596Z,2.90
2018-12-10T22:19:06.124Z,3.47
2018-12-10T22:21:35.231Z,3.10
2018-12-10T22:24:04.310Z,3.50
2018-12-10T22:26:33.408Z,4.57
2018-12-10T22:29:02.508Z,3.57
2018-12-10T22:31:31.644Z,4.10
2018-12-10T22:34:01.578Z,3.20
2018-12-10T22:36:30.684Z,4.17
2018-12-10T22:38:59.775Z,3.10
2018-12-10T22:41:28.898Z,3.60
2018-12-10T22:43:58.140Z,4.17
2018-12-10T22:46:27.240Z,3.27
2018-12-10T22:48:56.410Z,3.57
2018-12-10T22:51:25.517Z,2.77
2018-12-10T22:53:54.605Z,3.00
2018-12-10T22:56:23.689Z,3.20
2018-12-10T22:58:52.810Z,3.00
2018-12-10T23:01:21.897Z,2.50
2018-12-10T23:03:51.013Z,2.73
2018-12-10T23:06:20.133Z,2.67
2018-12-10T23:08:49.234Z,2.60
2018-12-10T23:11:18.388Z,2.40
2018-12-10T23:13:47.518Z,2.77
2018-12-10T23:16:16.616Z,2.77
2018-12-10T23:18:45.713Z,2.83
2018-12-10T23:21:14.804Z,2.97
2018-12-10T23:23:43.896Z,2.90
2018-12-10T23:26:13.001Z,3.30
2018-12-10T23:28:42.122Z,3.77
2018-12-10T23:31:11.226Z,3.63
2018-12-10T23:33:40.294Z,3.50
2018-12-10T23:36:09.449Z,2.80
2018-12-10T23:38:38.565Z,4.10
2018-12-10T23:41:07.676Z,3.50
2018-12-10T23:43:36.803Z,2.80
2018-12-10T23:46:05.897Z,2.83
2018-12-10T23:48:35.010Z,2.73
2018-12-10T23:51:04.117Z,2.10
2018-12-10T23:53:33.185Z,2.07
2018-12-10T23:56:02.294Z,2.20
2018-12-10T23:58:31.407Z,3.60
